Strona główna
METAR-TAF:

METAR-TAF

Lotnisko :

Borden, Ontario, Kanada

Szerokość geograficzna: 44-15N, Długość geograficzna: 079-55W, wysokość: 223 m

Aktualna obserwacja pogody

Raport powstał 41 minut temu, godzina 21:00 UTC
Wiatr 11 kt od północno-północny zachód, zmienny między północny zachód i północ
Temperatura 31°C
Wilgotność 43%
Ciśnienie 1013 hPa
Widzialność: 14.5 km
bezchmurnie

METAR: CYBN 082100Z AUTO 34011KT 310V010 9SM CLR 31/17 A2991 RMK SLP124

czas: 17:41 (21:41 UTC)


TAF: brakujący

Obserwacja i prognoza pogody dla ponad 4000 lotnisk (raport METAR i TAF).

Dostępne stacje oznaczono żółtymi i czerwonymi punktami na mapie.

Najedź kursorem aby zobaczyć nazwę stacji.

Kliknij aby zobaczyć obserwacje i prognozy pogody.

Aby zmienić mapę: kliknij na zielony przycisk z czarnym krzyżykiem, aby powiększyć; na zielony przycisk z myślnikiem, aby pomniejszyć; na zielone strzałki, aby przejść do map sąsiednich.


METAR-TAF: